sensor_id;sensor_type;location;lat;lon;timestamp;P1;durP1;ratioP1;P2;durP2;ratioP2
19301;SDS011;9785;59.362;12.152;2023-08-01T00:00:13;3.70;;;1.50;;
19301;SDS011;9785;59.362;12.152;2023-08-01T00:02:42;2.10;;;1.60;;
19301;SDS011;9785;59.362;12.152;2023-08-01T00:05:11;5.13;;;1.50;;
19301;SDS011;9785;59.362;12.152;2023-08-01T00:07:40;13.17;;;1.87;;
19301;SDS011;9785;59.362;12.152;2023-08-01T00:10:09;10.80;;;1.70;;
19301;SDS011;9785;59.362;12.152;2023-08-01T00:12:37;5.73;;;1.70;;
19301;SDS011;9785;59.362;12.152;2023-08-01T00:15:06;2.40;;;1.60;;
19301;SDS011;9785;59.362;12.152;2023-08-01T00:17:36;3.40;;;1.70;;
19301;SDS011;9785;59.362;12.152;2023-08-01T00:20:06;5.33;;;1.70;;
19301;SDS011;9785;59.362;12.152;2023-08-01T00:22:35;1.97;;;1.87;;
19301;SDS011;9785;59.362;12.152;2023-08-01T00:25:04;1.50;;;1.40;;
19301;SDS011;9785;59.362;12.152;2023-08-01T00:27:33;1.93;;;1.63;;
19301;SDS011;9785;59.362;12.152;2023-08-01T00:30:06;3.60;;;1.60;;
19301;SDS011;9785;59.362;12.152;2023-08-01T00:32:36;3.80;;;1.30;;
19301;SDS011;9785;59.362;12.152;2023-08-01T00:35:05;1.60;;;1.60;;
19301;SDS011;9785;59.362;12.152;2023-08-01T00:37:33;4.23;;;1.73;;
19301;SDS011;9785;59.362;12.152;2023-08-01T00:40:02;4.47;;;1.40;;
19301;SDS011;9785;59.362;12.152;2023-08-01T00:42:31;4.47;;;1.80;;
19301;SDS011;9785;59.362;12.152;2023-08-01T00:45:00;4.13;;;1.30;;
19301;SDS011;9785;59.362;12.152;2023-08-01T00:47:28;1.20;;;1.20;;
19301;SDS011;9785;59.362;12.152;2023-08-01T00:49:58;1.80;;;1.20;;
19301;SDS011;9785;59.362;12.152;2023-08-01T00:52:27;14.40;;;1.63;;
19301;SDS011;9785;59.362;12.152;2023-08-01T00:54:56;89.00;;;4.57;;
19301;SDS011;9785;59.362;12.152;2023-08-01T00:57:25;4.47;;;1.30;;
19301;SDS011;9785;59.362;12.152;2023-08-01T00:59:53;6.93;;;1.67;;
19301;SDS011;9785;59.362;12.152;2023-08-01T01:02:22;2.23;;;1.60;;
19301;SDS011;9785;59.362;12.152;2023-08-01T01:04:51;10.00;;;1.50;;
19301;SDS011;9785;59.362;12.152;2023-08-01T01:07:21;3.73;;;1.70;;
19301;SDS011;9785;59.362;12.152;2023-08-01T01:09:50;1.60;;;1.50;;
19301;SDS011;9785;59.362;12.152;2023-08-01T01:12:18;1.60;;;1.50;;
19301;SDS011;9785;59.362;12.152;2023-08-01T01:14:47;2.67;;;1.47;;
19301;SDS011;9785;59.362;12.152;2023-08-01T01:17:16;3.73;;;1.43;;
19301;SDS011;9785;59.362;12.152;2023-08-01T01:19:44;3.53;;;1.60;;
19301;SDS011;9785;59.362;12.152;2023-08-01T01:22:14;1.30;;;1.30;;
19301;SDS011;9785;59.362;12.152;2023-08-01T01:24:43;1.90;;;1.20;;
19301;SDS011;9785;59.362;12.152;2023-08-01T01:27:12;1.80;;;1.30;;
19301;SDS011;9785;59.362;12.152;2023-08-01T01:29:41;4.63;;;1.40;;
19301;SDS011;9785;59.362;12.152;2023-08-01T01:32:11;26.93;;;2.00;;
19301;SDS011;9785;59.362;12.152;2023-08-01T01:34:40;1.53;;;1.23;;
19301;SDS011;9785;59.362;12.152;2023-08-01T01:37:08;10.13;;;1.63;;
19301;SDS011;9785;59.362;12.152;2023-08-01T01:39:38;3.23;;;1.30;;
19301;SDS011;9785;59.362;12.152;2023-08-01T01:42:07;2.47;;;1.10;;
19301;SDS011;9785;59.362;12.152;2023-08-01T01:44:35;2.87;;;1.50;;
19301;SDS011;9785;59.362;12.152;2023-08-01T01:47:04;175.57;;;6.50;;
19301;SDS011;9785;59.362;12.152;2023-08-01T01:49:33;11.30;;;1.90;;
19301;SDS011;9785;59.362;12.152;2023-08-01T01:52:02;1.23;;;1.13;;
19301;SDS011;9785;59.362;12.152;2023-08-01T01:54:31;3.60;;;1.30;;
19301;SDS011;9785;59.362;12.152;2023-08-01T01:57:01;3.00;;;1.53;;
19301;SDS011;9785;59.362;12.152;2023-08-01T01:59:29;1.27;;;1.10;;
19301;SDS011;9785;59.362;12.152;2023-08-01T02:01:58;1.57;;;1.27;;
19301;SDS011;9785;59.362;12.152;2023-08-01T02:04:27;1.40;;;1.30;;
19301;SDS011;9785;59.362;12.152;2023-08-01T02:06:55;1.20;;;1.20;;
19301;SDS011;9785;59.362;12.152;2023-08-01T02:09:24;6.53;;;1.40;;
19301;SDS011;9785;59.362;12.152;2023-08-01T02:11:53;1.10;;;1.10;;
19301;SDS011;9785;59.362;12.152;2023-08-01T02:14:22;10.07;;;1.53;;
19301;SDS011;9785;59.362;12.152;2023-08-01T02:16:51;5.57;;;1.30;;
19301;SDS011;9785;59.362;12.152;2023-08-01T02:19:20;1.40;;;1.30;;
19301;SDS011;9785;59.362;12.152;2023-08-01T02:21:48;1.10;;;1.10;;
19301;SDS011;9785;59.362;12.152;2023-08-01T02:24:17;1.30;;;1.20;;
19301;SDS011;9785;59.362;12.152;2023-08-01T02:26:46;1.80;;;1.30;;
19301;SDS011;9785;59.362;12.152;2023-08-01T02:29:14;2.30;;;1.30;;
19301;SDS011;9785;59.362;12.152;2023-08-01T02:31:44;3.60;;;1.30;;
19301;SDS011;9785;59.362;12.152;2023-08-01T02:34:13;2.97;;;1.13;;
19301;SDS011;9785;59.362;12.152;2023-08-01T02:36:41;53.10;;;4.03;;
19301;SDS011;9785;59.362;12.152;2023-08-01T02:39:10;4.47;;;1.57;;
19301;SDS011;9785;59.362;12.152;2023-08-01T02:41:39;4.73;;;1.53;;
19301;SDS011;9785;59.362;12.152;2023-08-01T02:44:07;1.73;;;1.50;;
19301;SDS011;9785;59.362;12.152;2023-08-01T02:46:36;6.77;;;1.70;;
19301;SDS011;9785;59.362;12.152;2023-08-01T02:49:06;23.10;;;2.50;;
19301;SDS011;9785;59.362;12.152;2023-08-01T02:51:35;23.10;;;2.37;;
19301;SDS011;9785;59.362;12.152;2023-08-01T02:54:05;2.93;;;1.40;;
19301;SDS011;9785;59.362;12.152;2023-08-01T02:56:34;4.10;;;1.57;;
19301;SDS011;9785;59.362;12.152;2023-08-01T02:59:08;5.90;;;1.53;;
19301;SDS011;9785;59.362;12.152;2023-08-01T03:01:38;1.30;;;1.30;;
19301;SDS011;9785;59.362;12.152;2023-08-01T03:04:08;3.80;;;1.50;;
19301;SDS011;9785;59.362;12.152;2023-08-01T03:06:38;2.83;;;1.57;;
19301;SDS011;9785;59.362;12.152;2023-08-01T03:09:07;2.63;;;1.60;;
19301;SDS011;9785;59.362;12.152;2023-08-01T03:11:36;2.80;;;1.50;;
19301;SDS011;9785;59.362;12.152;2023-08-01T03:14:05;2.07;;;1.60;;
19301;SDS011;9785;59.362;12.152;2023-08-01T03:16:33;2.40;;;1.57;;
19301;SDS011;9785;59.362;12.152;2023-08-01T03:19:02;5.27;;;1.40;;
19301;SDS011;9785;59.362;12.152;2023-08-01T03:21:33;1.50;;;1.40;;
19301;SDS011;9785;59.362;12.152;2023-08-01T03:24:04;1.50;;;1.40;;
19301;SDS011;9785;59.362;12.152;2023-08-01T03:26:35;1.73;;;1.30;;
19301;SDS011;9785;59.362;12.152;2023-08-01T03:29:04;4.30;;;1.40;;
19301;SDS011;9785;59.362;12.152;2023-08-01T03:31:33;1.77;;;1.50;;
19301;SDS011;9785;59.362;12.152;2023-08-01T03:34:01;3.20;;;1.47;;
19301;SDS011;9785;59.362;12.152;2023-08-01T03:36:30;2.43;;;1.73;;
19301;SDS011;9785;59.362;12.152;2023-08-01T03:39:01;4.93;;;1.50;;
19301;SDS011;9785;59.362;12.152;2023-08-01T03:41:31;4.90;;;1.60;;
19301;SDS011;9785;59.362;12.152;2023-08-01T03:43:59;4.60;;;1.17;;
19301;SDS011;9785;59.362;12.152;2023-08-01T03:46:28;5.53;;;1.40;;
19301;SDS011;9785;59.362;12.152;2023-08-01T03:48:57;4.07;;;1.60;;
19301;SDS011;9785;59.362;12.152;2023-08-01T03:51:25;2.10;;;1.70;;
19301;SDS011;9785;59.362;12.152;2023-08-01T03:53:54;1.37;;;1.30;;
19301;SDS011;9785;59.362;12.152;2023-08-01T03:56:39;9.47;;;1.90;;
19301;SDS011;9785;59.362;12.152;2023-08-01T03:59:10;4.83;;;2.10;;
19301;SDS011;9785;59.362;12.152;2023-08-01T04:01:39;8.43;;;1.77;;
19301;SDS011;9785;59.362;12.152;2023-08-01T04:04:08;6.77;;;1.60;;
19301;SDS011;9785;59.362;12.152;2023-08-01T04:06:37;1.63;;;1.50;;
19301;SDS011;9785;59.362;12.152;2023-08-01T04:09:06;2.10;;;1.90;;
19301;SDS011;9785;59.362;12.152;2023-08-01T04:11:35;4.03;;;1.70;;
19301;SDS011;9785;59.362;12.152;2023-08-01T04:14:05;4.00;;;1.90;;
19301;SDS011;9785;59.362;12.152;2023-08-01T04:16:34;4.17;;;1.60;;
19301;SDS011;9785;59.362;12.152;2023-08-01T04:19:04;4.87;;;1.60;;
19301;SDS011;9785;59.362;12.152;2023-08-01T04:21:32;1.70;;;1.60;;
19301;SDS011;9785;59.362;12.152;2023-08-01T04:24:01;2.07;;;1.80;;
19301;SDS011;9785;59.362;12.152;2023-08-01T04:26:29;2.63;;;1.90;;
19301;SDS011;9785;59.362;12.152;2023-08-01T04:28:58;2.03;;;1.70;;
19301;SDS011;9785;59.362;12.152;2023-08-01T04:31:28;2.93;;;2.30;;
19301;SDS011;9785;59.362;12.152;2023-08-01T04:33:57;2.20;;;2.10;;
19301;SDS011;9785;59.362;12.152;2023-08-01T04:36:25;3.80;;;1.97;;
19301;SDS011;9785;59.362;12.152;2023-08-01T04:38:54;1.80;;;1.80;;
19301;SDS011;9785;59.362;12.152;2023-08-01T04:41:22;3.67;;;1.70;;
19301;SDS011;9785;59.362;12.152;2023-08-01T04:43:51;2.70;;;1.80;;
19301;SDS011;9785;59.362;12.152;2023-08-01T04:46:20;5.37;;;2.03;;
19301;SDS011;9785;59.362;12.152;2023-08-01T04:48:50;3.17;;;1.73;;
19301;SDS011;9785;59.362;12.152;2023-08-01T04:51:18;2.50;;;1.97;;
19301;SDS011;9785;59.362;12.152;2023-08-01T04:53:47;4.83;;;2.30;;
19301;SDS011;9785;59.362;12.152;2023-08-01T04:56:16;3.57;;;2.10;;
19301;SDS011;9785;59.362;12.152;2023-08-01T04:58:44;3.43;;;2.20;;
19301;SDS011;9785;59.362;12.152;2023-08-01T05:01:13;3.67;;;2.37;;
19301;SDS011;9785;59.362;12.152;2023-08-01T05:03:42;4.67;;;2.20;;
19301;SDS011;9785;59.362;12.152;2023-08-01T05:06:12;2.37;;;2.27;;
19301;SDS011;9785;59.362;12.152;2023-08-01T05:08:40;3.40;;;2.10;;
19301;SDS011;9785;59.362;12.152;2023-08-01T05:11:09;2.40;;;2.10;;
19301;SDS011;9785;59.362;12.152;2023-08-01T05:13:37;2.60;;;2.40;;
19301;SDS011;9785;59.362;12.152;2023-08-01T05:16:06;2.63;;;2.00;;
19301;SDS011;9785;59.362;12.152;2023-08-01T05:18:35;1.90;;;1.80;;
19301;SDS011;9785;59.362;12.152;2023-08-01T05:21:03;5.83;;;2.20;;
19301;SDS011;9785;59.362;12.152;2023-08-01T05:23:34;2.13;;;2.03;;
19301;SDS011;9785;59.362;12.152;2023-08-01T05:26:02;4.33;;;2.27;;
19301;SDS011;9785;59.362;12.152;2023-08-01T05:28:31;4.60;;;2.20;;
19301;SDS011;9785;59.362;12.152;2023-08-01T05:31:00;2.70;;;2.50;;
19301;SDS011;9785;59.362;12.152;2023-08-01T05:33:28;2.37;;;2.10;;
19301;SDS011;9785;59.362;12.152;2023-08-01T05:35:57;3.30;;;2.23;;
19301;SDS011;9785;59.362;12.152;2023-08-01T05:38:26;3.13;;;2.30;;
19301;SDS011;9785;59.362;12.152;2023-08-01T05:40:56;2.67;;;2.30;;
19301;SDS011;9785;59.362;12.152;2023-08-01T05:43:25;2.43;;;2.23;;
19301;SDS011;9785;59.362;12.152;2023-08-01T05:45:53;3.50;;;2.20;;
19301;SDS011;9785;59.362;12.152;2023-08-01T05:48:22;2.27;;;2.17;;
19301;SDS011;9785;59.362;12.152;2023-08-01T05:50:51;2.50;;;2.30;;
19301;SDS011;9785;59.362;12.152;2023-08-01T05:53:21;3.33;;;2.10;;
19301;SDS011;9785;59.362;12.152;2023-08-01T05:55:50;2.23;;;2.03;;
19301;SDS011;9785;59.362;12.152;2023-08-01T05:58:20;2.20;;;1.90;;
19301;SDS011;9785;59.362;12.152;2023-08-01T06:00:49;1.93;;;1.83;;
19301;SDS011;9785;59.362;12.152;2023-08-01T06:03:18;2.23;;;2.00;;
19301;SDS011;9785;59.362;12.152;2023-08-01T06:05:46;3.33;;;2.73;;
19301;SDS011;9785;59.362;12.152;2023-08-01T06:08:15;3.83;;;2.00;;
19301;SDS011;9785;59.362;12.152;2023-08-01T06:10:45;2.17;;;2.00;;
19301;SDS011;9785;59.362;12.152;2023-08-01T06:13:13;2.93;;;2.03;;
19301;SDS011;9785;59.362;12.152;2023-08-01T06:15:43;2.33;;;1.80;;
19301;SDS011;9785;59.362;12.152;2023-08-01T06:18:12;2.53;;;1.70;;
19301;SDS011;9785;59.362;12.152;2023-08-01T06:20:40;2.80;;;1.80;;
19301;SDS011;9785;59.362;12.152;2023-08-01T06:23:09;2.50;;;1.60;;
19301;SDS011;9785;59.362;12.152;2023-08-01T06:25:38;2.40;;;1.70;;
19301;SDS011;9785;59.362;12.152;2023-08-01T06:28:06;2.00;;;1.60;;
19301;SDS011;9785;59.362;12.152;2023-08-01T06:30:35;2.83;;;1.50;;
19301;SDS011;9785;59.362;12.152;2023-08-01T06:33:05;3.37;;;1.50;;
19301;SDS011;9785;59.362;12.152;2023-08-01T06:35:34;1.77;;;1.53;;
19301;SDS011;9785;59.362;12.152;2023-08-01T06:38:02;2.10;;;1.50;;
19301;SDS011;9785;59.362;12.152;2023-08-01T06:40:31;2.90;;;1.50;;
19301;SDS011;9785;59.362;12.152;2023-08-01T06:42:59;1.40;;;1.30;;
19301;SDS011;9785;59.362;12.152;2023-08-01T06:45:29;7.40;;;1.40;;
19301;SDS011;9785;59.362;12.152;2023-08-01T06:47:58;1.63;;;1.50;;
19301;SDS011;9785;59.362;12.152;2023-08-01T06:50:28;1.97;;;1.77;;
19301;SDS011;9785;59.362;12.152;2023-08-01T06:52:57;2.20;;;1.80;;
19301;SDS011;9785;59.362;12.152;2023-08-01T06:55:27;4.03;;;1.90;;
19301;SDS011;9785;59.362;12.152;2023-08-01T06:57:57;2.17;;;1.80;;
19301;SDS011;9785;59.362;12.152;2023-08-01T07:00:26;2.30;;;1.77;;
19301;SDS011;9785;59.362;12.152;2023-08-01T07:02:55;1.90;;;1.80;;
19301;SDS011;9785;59.362;12.152;2023-08-01T07:05:24;5.47;;;1.90;;
19301;SDS011;9785;59.362;12.152;2023-08-01T07:07:54;3.07;;;2.27;;
19301;SDS011;9785;59.362;12.152;2023-08-01T07:10:22;2.43;;;2.20;;
19301;SDS011;9785;59.362;12.152;2023-08-01T07:12:51;2.63;;;2.00;;
19301;SDS011;9785;59.362;12.152;2023-08-01T07:15:20;3.10;;;2.07;;
19301;SDS011;9785;59.362;12.152;2023-08-01T07:17:48;2.20;;;1.90;;
19301;SDS011;9785;59.362;12.152;2023-08-01T07:20:17;2.70;;;2.00;;
19301;SDS011;9785;59.362;12.152;2023-08-01T07:22:46;2.73;;;1.90;;
19301;SDS011;9785;59.362;12.152;2023-08-01T07:25:16;3.70;;;1.87;;
19301;SDS011;9785;59.362;12.152;2023-08-01T07:27:45;3.50;;;1.97;;
19301;SDS011;9785;59.362;12.152;2023-08-01T07:30:14;2.00;;;1.50;;
19301;SDS011;9785;59.362;12.152;2023-08-01T07:32:42;1.80;;;1.70;;
19301;SDS011;9785;59.362;12.152;2023-08-01T07:35:11;2.63;;;1.87;;
19301;SDS011;9785;59.362;12.152;2023-08-01T07:37:40;4.13;;;1.80;;
19301;SDS011;9785;59.362;12.152;2023-08-01T07:40:09;2.97;;;1.90;;
19301;SDS011;9785;59.362;12.152;2023-08-01T07:42:39;1.80;;;1.70;;
19301;SDS011;9785;59.362;12.152;2023-08-01T07:45:08;2.07;;;1.67;;
19301;SDS011;9785;59.362;12.152;2023-08-01T07:47:36;1.67;;;1.47;;
19301;SDS011;9785;59.362;12.152;2023-08-01T07:50:06;1.80;;;1.70;;
19301;SDS011;9785;59.362;12.152;2023-08-01T07:52:34;3.33;;;1.70;;
19301;SDS011;9785;59.362;12.152;2023-08-01T07:55:03;1.70;;;1.60;;
19301;SDS011;9785;59.362;12.152;2023-08-01T07:57:32;2.33;;;1.80;;
19301;SDS011;9785;59.362;12.152;2023-08-01T08:00:02;1.77;;;1.63;;
19301;SDS011;9785;59.362;12.152;2023-08-01T08:02:31;1.80;;;1.70;;
19301;SDS011;9785;59.362;12.152;2023-08-01T08:05:00;3.47;;;1.70;;
19301;SDS011;9785;59.362;12.152;2023-08-01T08:07:29;2.07;;;1.70;;
19301;SDS011;9785;59.362;12.152;2023-08-01T08:09:58;5.20;;;1.87;;
19301;SDS011;9785;59.362;12.152;2023-08-01T08:12:26;3.25;;;1.90;;
19301;SDS011;9785;59.362;12.152;2023-08-01T08:14:55;2.93;;;1.60;;
19301;SDS011;9785;59.362;12.152;2023-08-01T08:17:25;4.13;;;1.70;;
19301;SDS011;9785;59.362;12.152;2023-08-01T08:19:54;2.00;;;1.50;;
19301;SDS011;9785;59.362;12.152;2023-08-01T08:22:22;1.43;;;1.30;;
19301;SDS011;9785;59.362;12.152;2023-08-01T08:24:51;1.83;;;1.73;;
19301;SDS011;9785;59.362;12.152;2023-08-01T08:27:20;1.30;;;1.27;;
19301;SDS011;9785;59.362;12.152;2023-08-01T08:29:48;2.10;;;1.50;;
19301;SDS011;9785;59.362;12.152;2023-08-01T08:32:18;1.40;;;1.30;;
19301;SDS011;9785;59.362;12.152;2023-08-01T08:34:48;3.23;;;1.80;;
19301;SDS011;9785;59.362;12.152;2023-08-01T08:37:16;2.10;;;1.50;;
19301;SDS011;9785;59.362;12.152;2023-08-01T08:39:45;2.23;;;1.60;;
19301;SDS011;9785;59.362;12.152;2023-08-01T08:42:17;3.33;;;1.40;;
19301;SDS011;9785;59.362;12.152;2023-08-01T08:44:46;5.60;;;1.43;;
19301;SDS011;9785;59.362;12.152;2023-08-01T08:47:18;2.23;;;1.40;;
19301;SDS011;9785;59.362;12.152;2023-08-01T08:49:49;1.30;;;1.20;;
19301;SDS011;9785;59.362;12.152;2023-08-01T08:52:18;1.50;;;1.40;;
19301;SDS011;9785;59.362;12.152;2023-08-01T08:54:47;1.10;;;1.10;;
19301;SDS011;9785;59.362;12.152;2023-08-01T08:57:16;1.43;;;1.20;;
19301;SDS011;9785;59.362;12.152;2023-08-01T08:59:44;1.27;;;1.17;;
19301;SDS011;9785;59.362;12.152;2023-08-01T09:02:14;1.63;;;1.10;;
19301;SDS011;9785;59.362;12.152;2023-08-01T09:04:43;1.47;;;1.33;;
19301;SDS011;9785;59.362;12.152;2023-08-01T09:07:13;1.40;;;1.30;;
19301;SDS011;9785;59.362;12.152;2023-08-01T09:09:44;1.20;;;1.10;;
19301;SDS011;9785;59.362;12.152;2023-08-01T09:12:13;1.60;;;0.97;;
19301;SDS011;9785;59.362;12.152;2023-08-01T09:14:41;1.20;;;1.10;;
19301;SDS011;9785;59.362;12.152;2023-08-01T09:17:10;0.73;;;0.73;;
19301;SDS011;9785;59.362;12.152;2023-08-01T09:19:42;0.95;;;0.95;;
19301;SDS011;9785;59.362;12.152;2023-08-01T09:22:10;0.80;;;0.75;;
19301;SDS011;9785;59.362;12.152;2023-08-01T09:24:49;1.90;;;0.88;;
19301;SDS011;9785;59.362;12.152;2023-08-01T09:27:18;0.80;;;0.80;;
19301;SDS011;9785;59.362;12.152;2023-08-01T09:29:49;1.40;;;0.80;;
19301;SDS011;9785;59.362;12.152;2023-08-01T09:32:17;0.88;;;0.80;;
19301;SDS011;9785;59.362;12.152;2023-08-01T09:34:46;0.80;;;0.80;;
19301;SDS011;9785;59.362;12.152;2023-08-01T09:37:15;2.55;;;0.85;;
19301;SDS011;9785;59.362;12.152;2023-08-01T09:39:53;0.80;;;0.80;;
19301;SDS011;9785;59.362;12.152;2023-08-01T09:42:22;0.70;;;0.70;;
19301;SDS011;9785;59.362;12.152;2023-08-01T09:44:51;0.77;;;0.75;;
19301;SDS011;9785;59.362;12.152;2023-08-01T09:47:19;0.82;;;0.82;;
19301;SDS011;9785;59.362;12.152;2023-08-01T09:49:48;1.60;;;0.77;;
19301;SDS011;9785;59.362;12.152;2023-08-01T09:52:26;0.70;;;0.70;;
19301;SDS011;9785;59.362;12.152;2023-08-01T09:54:56;0.87;;;0.87;;
19301;SDS011;9785;59.362;12.152;2023-08-01T09:57:25;0.57;;;0.50;;
19301;SDS011;9785;59.362;12.152;2023-08-01T09:59:57;2.40;;;0.60;;
19301;SDS011;9785;59.362;12.152;2023-08-01T10:02:26;0.82;;;0.80;;
19301;SDS011;9785;59.362;12.152;2023-08-01T10:04:59;2.50;;;0.60;;
19301;SDS011;9785;59.362;12.152;2023-08-01T10:07:29;1.10;;;0.88;;
19301;SDS011;9785;59.362;12.152;2023-08-01T10:09:59;1.38;;;0.80;;
19301;SDS011;9785;59.362;12.152;2023-08-01T10:12:28;0.70;;;0.70;;
19301;SDS011;9785;59.362;12.152;2023-08-01T10:14:58;1.73;;;0.90;;
19301;SDS011;9785;59.362;12.152;2023-08-01T10:17:26;0.70;;;0.70;;
19301;SDS011;9785;59.362;12.152;2023-08-01T10:19:56;1.00;;;0.90;;
19301;SDS011;9785;59.362;12.152;2023-08-01T10:22:25;0.70;;;0.70;;
19301;SDS011;9785;59.362;12.152;2023-08-01T10:24:54;2.60;;;0.70;;
19301;SDS011;9785;59.362;12.152;2023-08-01T10:27:25;0.60;;;0.60;;
19301;SDS011;9785;59.362;12.152;2023-08-01T10:29:56;1.33;;;0.87;;
19301;SDS011;9785;59.362;12.152;2023-08-01T10:32:29;2.15;;;0.77;;
19301;SDS011;9785;59.362;12.152;2023-08-01T10:34:59;1.15;;;0.90;;
19301;SDS011;9785;59.362;12.152;2023-08-01T10:37:38;2.95;;;1.00;;
19301;SDS011;9785;59.362;12.152;2023-08-01T10:40:10;2.65;;;0.90;;
19301;SDS011;9785;59.362;12.152;2023-08-01T10:42:43;3.05;;;1.13;;
19301;SDS011;9785;59.362;12.152;2023-08-01T10:45:19;1.17;;;1.08;;
19301;SDS011;9785;59.362;12.152;2023-08-01T10:47:49;0.73;;;0.73;;
19301;SDS011;9785;59.362;12.152;2023-08-01T10:50:18;0.80;;;0.80;;
19301;SDS011;9785;59.362;12.152;2023-08-01T10:52:46;2.67;;;1.05;;
19301;SDS011;9785;59.362;12.152;2023-08-01T10:55:15;1.73;;;0.90;;
19301;SDS011;9785;59.362;12.152;2023-08-01T10:57:48;0.80;;;0.80;;
19301;SDS011;9785;59.362;12.152;2023-08-01T11:00:17;2.10;;;1.25;;
19301;SDS011;9785;59.362;12.152;2023-08-01T11:02:48;3.88;;;1.00;;
19301;SDS011;9785;59.362;12.152;2023-08-01T11:05:18;1.05;;;0.80;;
19301;SDS011;9785;59.362;12.152;2023-08-01T11:07:53;0.80;;;0.80;;
19301;SDS011;9785;59.362;12.152;2023-08-01T11:10:26;2.17;;;0.80;;
19301;SDS011;9785;59.362;12.152;2023-08-01T11:12:56;2.28;;;0.80;;
19301;SDS011;9785;59.362;12.152;2023-08-01T11:15:25;0.90;;;0.90;;
19301;SDS011;9785;59.362;12.152;2023-08-01T11:17:54;2.35;;;2.15;;
19301;SDS011;9785;59.362;12.152;2023-08-01T11:20:23;1.95;;;1.02;;
19301;SDS011;9785;59.362;12.152;2023-08-01T11:22:53;2.92;;;0.90;;
19301;SDS011;9785;59.362;12.152;2023-08-01T11:25:32;1.30;;;0.80;;
19301;SDS011;9785;59.362;12.152;2023-08-01T11:28:04;0.80;;;0.80;;
19301;SDS011;9785;59.362;12.152;2023-08-01T11:30:34;4.47;;;1.10;;
19301;SDS011;9785;59.362;12.152;2023-08-01T11:33:12;0.95;;;0.95;;
19301;SDS011;9785;59.362;12.152;2023-08-01T11:35:41;1.38;;;1.25;;
19301;SDS011;9785;59.362;12.152;2023-08-01T11:38:10;0.80;;;0.80;;
19301;SDS011;9785;59.362;12.152;2023-08-01T11:40:38;2.05;;;0.88;;
19301;SDS011;9785;59.362;12.152;2023-08-01T11:43:09;3.30;;;0.90;;
19301;SDS011;9785;59.362;12.152;2023-08-01T11:45:47;0.70;;;0.70;;
19301;SDS011;9785;59.362;12.152;2023-08-01T11:48:16;0.70;;;0.70;;
19301;SDS011;9785;59.362;12.152;2023-08-01T11:50:45;0.70;;;0.70;;
19301;SDS011;9785;59.362;12.152;2023-08-01T11:53:19;0.80;;;0.80;;
19301;SDS011;9785;59.362;12.152;2023-08-01T11:55:48;1.52;;;0.90;;
19301;SDS011;9785;59.362;12.152;2023-08-01T11:58:28;1.75;;;0.90;;
19301;SDS011;9785;59.362;12.152;2023-08-01T12:01:01;1.98;;;0.90;;
19301;SDS011;9785;59.362;12.152;2023-08-01T12:03:30;1.20;;;0.80;;
19301;SDS011;9785;59.362;12.152;2023-08-01T12:06:03;1.63;;;0.65;;
19301;SDS011;9785;59.362;12.152;2023-08-01T12:08:34;2.97;;;0.70;;
19301;SDS011;9785;59.362;12.152;2023-08-01T12:11:03;0.80;;;0.80;;
19301;SDS011;9785;59.362;12.152;2023-08-01T12:13:33;0.80;;;0.80;;
19301;SDS011;9785;59.362;12.152;2023-08-01T12:16:01;0.60;;;0.60;;
19301;SDS011;9785;59.362;12.152;2023-08-01T12:18:30;0.60;;;0.60;;
19301;SDS011;9785;59.362;12.152;2023-08-01T12:21:01;1.23;;;0.70;;
19301;SDS011;9785;59.362;12.152;2023-08-01T12:23:32;6.70;;;0.95;;
19301;SDS011;9785;59.362;12.152;2023-08-01T12:26:00;1.20;;;0.80;;
19301;SDS011;9785;59.362;12.152;2023-08-01T12:28:29;2.85;;;0.77;;
19301;SDS011;9785;59.362;12.152;2023-08-01T12:30:59;1.58;;;0.70;;
19301;SDS011;9785;59.362;12.152;2023-08-01T12:33:28;0.70;;;0.70;;
19301;SDS011;9785;59.362;12.152;2023-08-01T12:35:56;1.45;;;0.70;;
19301;SDS011;9785;59.362;12.152;2023-08-01T12:38:25;1.80;;;0.75;;
19301;SDS011;9785;59.362;12.152;2023-08-01T12:40:54;1.20;;;0.77;;
19301;SDS011;9785;59.362;12.152;2023-08-01T12:43:22;0.80;;;0.80;;
19301;SDS011;9785;59.362;12.152;2023-08-01T12:45:51;1.38;;;0.75;;
19301;SDS011;9785;59.362;12.152;2023-08-01T12:48:22;1.58;;;0.70;;
19301;SDS011;9785;59.362;12.152;2023-08-01T12:50:51;0.80;;;0.80;;
19301;SDS011;9785;59.362;12.152;2023-08-01T12:53:20;1.08;;;0.77;;
19301;SDS011;9785;59.362;12.152;2023-08-01T12:55:50;0.77;;;0.60;;
19301;SDS011;9785;59.362;12.152;2023-08-01T12:58:19;1.80;;;0.70;;
19301;SDS011;9785;59.362;12.152;2023-08-01T13:00:47;0.52;;;0.50;;
19301;SDS011;9785;59.362;12.152;2023-08-01T13:03:16;3.33;;;0.73;;
19301;SDS011;9785;59.362;12.152;2023-08-01T13:05:46;0.98;;;0.50;;
19301;SDS011;9785;59.362;12.152;2023-08-01T13:08:15;0.70;;;0.50;;
19301;SDS011;9785;59.362;12.152;2023-08-01T13:10:43;3.85;;;0.50;;
19301;SDS011;9785;59.362;12.152;2023-08-01T13:13:12;0.40;;;0.40;;
19301;SDS011;9785;59.362;12.152;2023-08-01T13:15:41;0.50;;;0.50;;
19301;SDS011;9785;59.362;12.152;2023-08-01T13:18:10;1.42;;;0.57;;
19301;SDS011;9785;59.362;12.152;2023-08-01T13:20:39;1.48;;;0.73;;
19301;SDS011;9785;59.362;12.152;2023-08-01T13:23:09;0.68;;;0.68;;
19301;SDS011;9785;59.362;12.152;2023-08-01T13:25:37;2.28;;;0.82;;
19301;SDS011;9785;59.362;12.152;2023-08-01T13:28:06;2.40;;;0.70;;
19301;SDS011;9785;59.362;12.152;2023-08-01T13:30:35;5.47;;;0.60;;
19301;SDS011;9785;59.362;12.152;2023-08-01T13:33:03;0.90;;;0.80;;
19301;SDS011;9785;59.362;12.152;2023-08-01T13:35:32;0.73;;;0.73;;
19301;SDS011;9785;59.362;12.152;2023-08-01T13:38:00;1.30;;;0.60;;
19301;SDS011;9785;59.362;12.152;2023-08-01T13:40:32;1.55;;;0.75;;
19301;SDS011;9785;59.362;12.152;2023-08-01T13:43:02;0.70;;;0.70;;
19301;SDS011;9785;59.362;12.152;2023-08-01T13:45:30;1.33;;;0.80;;
19301;SDS011;9785;59.362;12.152;2023-08-01T13:47:59;2.35;;;0.95;;
19301;SDS011;9785;59.362;12.152;2023-08-01T13:50:28;1.95;;;0.85;;
19301;SDS011;9785;59.362;12.152;2023-08-01T13:52:57;0.95;;;0.90;;
19301;SDS011;9785;59.362;12.152;2023-08-01T13:55:26;1.50;;;0.73;;
19301;SDS011;9785;59.362;12.152;2023-08-01T13:57:56;1.48;;;0.68;;
19301;SDS011;9785;59.362;12.152;2023-08-01T14:00:24;1.00;;;0.70;;
19301;SDS011;9785;59.362;12.152;2023-08-01T14:02:53;0.70;;;0.70;;
19301;SDS011;9785;59.362;12.152;2023-08-01T14:05:24;1.33;;;0.77;;
19301;SDS011;9785;59.362;12.152;2023-08-01T14:07:53;1.50;;;0.77;;
19301;SDS011;9785;59.362;12.152;2023-08-01T14:10:23;4.07;;;0.90;;
19301;SDS011;9785;59.362;12.152;2023-08-01T14:12:51;1.55;;;0.70;;
19301;SDS011;9785;59.362;12.152;2023-08-01T14:15:21;0.65;;;0.65;;
19301;SDS011;9785;59.362;12.152;2023-08-01T14:17:50;0.75;;;0.75;;
19301;SDS011;9785;59.362;12.152;2023-08-01T14:20:19;2.05;;;0.73;;
19301;SDS011;9785;59.362;12.152;2023-08-01T14:22:48;2.60;;;0.77;;
19301;SDS011;9785;59.362;12.152;2023-08-01T14:25:16;1.38;;;0.77;;
19301;SDS011;9785;59.362;12.152;2023-08-01T14:27:45;1.83;;;0.75;;
19301;SDS011;9785;59.362;12.152;2023-08-01T14:30:16;1.20;;;0.70;;
19301;SDS011;9785;59.362;12.152;2023-08-01T14:32:46;1.88;;;0.80;;
19301;SDS011;9785;59.362;12.152;2023-08-01T14:35:15;1.48;;;0.70;;
19301;SDS011;9785;59.362;12.152;2023-08-01T14:37:43;1.73;;;0.88;;
19301;SDS011;9785;59.362;12.152;2023-08-01T14:40:16;1.77;;;0.80;;
19301;SDS011;9785;59.362;12.152;2023-08-01T14:42:45;0.60;;;0.60;;
19301;SDS011;9785;59.362;12.152;2023-08-01T14:45:14;1.33;;;0.70;;
19301;SDS011;9785;59.362;12.152;2023-08-01T14:47:42;1.10;;;0.80;;
19301;SDS011;9785;59.362;12.152;2023-08-01T14:50:13;1.20;;;0.70;;
19301;SDS011;9785;59.362;12.152;2023-08-01T14:52:42;0.70;;;0.70;;
19301;SDS011;9785;59.362;12.152;2023-08-01T14:55:11;0.70;;;0.70;;
19301;SDS011;9785;59.362;12.152;2023-08-01T14:57:39;0.50;;;0.50;;
19301;SDS011;9785;59.362;12.152;2023-08-01T15:00:08;0.70;;;0.70;;